Time;durP1;ratioP1;P1;durP2;ratioP2;P2;SDS_P1;SDS_P2;PMS_P1;PMS_P2;Temp;Humidity;BMP_temperature;BMP_pressure;BME280_temperature;BME280_humidity;BME280_pressure;Samples;Min_cycle;Max_cycle;Signal;HPM_P1;HPM_P2
2021/01/31 00:01:44;;;;;;;67.53;25.60;;;;;;;;;;5154154;27;20045;-63
2021/01/31 00:04:29;;;;;;;84.47;30.23;;;;;;;;;;5154029;27;20050;-63
2021/01/31 00:07:15;;;;;;;52.97;19.67;;;;;;;;;;5154160;27;20051;-63
2021/01/31 00:10:00;;;;;;;62.08;21.98;;;;;;;;;;5141944;27;20416;-63
2021/01/31 00:12:49;;;;;;;33.65;14.63;;;;;;;;;;5152963;27;20553;-63
2021/01/31 00:15:36;;;;;;;55.78;20.77;;;;;;;;;;5150563;27;20043;-63
2021/01/31 00:18:22;;;;;;;62.53;22.80;;;;;;;;;;5153946;27;20416;-63
2021/01/31 00:21:08;;;;;;;71.90;26.90;;;;;;;;;;5153775;27;20054;-63
2021/01/31 00:23:53;;;;;;;78.07;27.45;;;;;;;;;;5153896;27;20055;-63
2021/01/31 00:26:38;;;;;;;80.47;27.92;;;;;;;;;;5153769;27;20070;-63
2021/01/31 00:29:24;;;;;;;59.03;20.67;;;;;;;;;;5153839;27;20446;-63
2021/01/31 00:32:09;;;;;;;64.95;24.08;;;;;;;;;;5149056;27;20043;-63
2021/01/31 00:34:55;;;;;;;66.10;26.02;;;;;;;;;;5132995;27;20417;-64
2021/01/31 00:37:40;;;;;;;67.65;25.67;;;;;;;;;;5132774;27;20511;-63
2021/01/31 00:40:25;;;;;;;70.85;25.10;;;;;;;;;;5133062;27;20043;-64
2021/01/31 00:43:11;;;;;;;62.80;24.02;;;;;;;;;;5134140;27;20043;-64
2021/01/31 00:45:56;;;;;;;54.75;23.90;;;;;;;;;;5131820;28;20054;-64
2021/01/31 00:48:42;;;;;;;66.47;24.77;;;;;;;;;;5132979;28;20387;-63
2021/01/31 00:51:28;;;;;;;64.07;26.50;;;;;;;;;;5132843;28;20039;-63
2021/01/31 00:54:14;;;;;;;66.85;25.30;;;;;;;;;;5147750;27;20047;-63
2021/01/31 00:56:59;;;;;;;64.40;24.33;;;;;;;;;;5152540;27;20051;-63
2021/01/31 00:59:45;;;;;;;66.65;26.08;;;;;;;;;;5152604;27;20055;-63
2021/01/31 01:02:31;;;;;;;84.85;29.83;;;;;;;;;;5152728;27;20047;-63
2021/01/31 01:05:16;;;;;;;75.55;29.27;;;;;;;;;;5135855;27;20101;-64
2021/01/31 01:08:01;;;;;;;72.28;29.13;;;;;;;;;;5136912;27;20044;-63
2021/01/31 01:10:47;;;;;;;79.47;28.50;;;;;;;;;;5136749;27;20112;-63
2021/01/31 01:13:32;;;;;;;72.22;27.98;;;;;;;;;;5141192;27;20293;-63
2021/01/31 01:16:18;;;;;;;58.95;23.73;;;;;;;;;;5157267;27;20561;-63
2021/01/31 01:19:04;;;;;;;69.05;30.00;;;;;;;;;;5157481;27;20047;-65
2021/01/31 01:21:49;;;;;;;72.82;28.52;;;;;;;;;;5157503;27;20183;-64
2021/01/31 01:24:35;;;;;;;71.45;28.00;;;;;;;;;;5155514;27;20054;-65
2021/01/31 01:27:21;;;;;;;79.15;29.23;;;;;;;;;;5157137;27;20057;-65
2021/01/31 01:30:10;;;;;;;70.85;26.60;;;;;;;;;;5157386;27;20043;-65
2021/01/31 01:32:55;;;;;;;71.10;27.13;;;;;;;;;;5157007;27;20042;-64
2021/01/31 01:35:40;;;;;;;68.38;27.63;;;;;;;;;;5149953;27;20492;-65
2021/01/31 01:38:26;;;;;;;76.25;29.42;;;;;;;;;;5156996;27;20035;-65
2021/01/31 01:41:11;;;;;;;75.95;28.38;;;;;;;;;;5154210;27;20053;-65
2021/01/31 01:43:56;;;;;;;65.40;25.90;;;;;;;;;;5155402;27;20046;-65
2021/01/31 01:46:46;;;;;;;78.32;30.30;;;;;;;;;;5135917;27;20107;-63
2021/01/31 01:49:33;;;;;;;70.95;27.58;;;;;;;;;;5156205;27;20093;-63
2021/01/31 01:52:22;;;;;;;72.25;29.10;;;;;;;;;;5156720;27;20047;-63
2021/01/31 01:55:12;;;;;;;75.50;28.60;;;;;;;;;;5156836;27;20054;-63
2021/01/31 01:58:04;;;;;;;71.85;30.08;;;;;;;;;;5150227;27;20046;-63
2021/01/31 02:00:49;;;;;;;77.60;30.77;;;;;;;;;;5148131;27;20484;-62
2021/01/31 02:03:35;;;;;;;77.30;29.52;;;;;;;;;;5154279;27;20465;-62
2021/01/31 02:06:22;;;;;;;73.03;28.77;;;;;;;;;;5155500;27;20039;-62
2021/01/31 02:09:08;;;;;;;74.00;28.17;;;;;;;;;;5145411;27;20116;-62
2021/01/31 02:11:54;;;;;;;76.32;29.98;;;;;;;;;;5135675;27;20140;-63
2021/01/31 02:14:39;;;;;;;81.00;29.85;;;;;;;;;;5146037;27;20047;-62
2021/01/31 02:17:39;;;;;;;71.82;27.63;;;;;;;;;;5156265;27;20073;-62
2021/01/31 02:20:35;;;;;;;70.53;29.50;;;;;;;;;;5155647;27;20043;-62
2021/01/31 02:23:39;;;;;;;71.45;27.90;;;;;;;;;;5158862;27;20042;-63
2021/01/31 02:26:36;;;;;;;69.78;28.13;;;;;;;;;;5156380;27;20041;-63
2021/01/31 02:29:24;;;;;;;71.40;28.00;;;;;;;;;;5154430;27;20124;-62
2021/01/31 02:32:28;;;;;;;73.88;30.23;;;;;;;;;;5155922;27;20504;-62
2021/01/31 02:35:23;;;;;;;68.35;26.98;;;;;;;;;;5156067;27;20043;-61
2021/01/31 02:38:11;;;;;;;74.32;29.98;;;;;;;;;;5154292;27;20042;-62
2021/01/31 02:40:57;;;;;;;67.60;28.58;;;;;;;;;;5154697;27;20042;-62
2021/01/31 02:43:44;;;;;;;62.78;25.67;;;;;;;;;;5155715;27;20676;-62
2021/01/31 02:46:30;;;;;;;65.78;26.48;;;;;;;;;;5154757;27;20046;-62
2021/01/31 02:49:19;;;;;;;63.33;27.40;;;;;;;;;;5154465;27;20042;-62
2021/01/31 02:52:24;;;;;;;71.85;26.85;;;;;;;;;;5155653;27;20034;-62
2021/01/31 02:55:12;;;;;;;73.00;30.08;;;;;;;;;;5154492;27;20134;-62
2021/01/31 02:58:06;;;;;;;66.35;27.30;;;;;;;;;;5151714;27;20129;-63
2021/01/31 03:01:10;;;;;;;72.50;28.58;;;;;;;;;;5134007;27;20054;-63
2021/01/31 03:03:57;;;;;;;68.88;28.75;;;;;;;;;;5134695;27;20085;-62
2021/01/31 03:06:44;;;;;;;63.80;26.67;;;;;;;;;;5133678;27;20043;-62
2021/01/31 03:09:42;;;;;;;61.05;26.63;;;;;;;;;;5146727;27;20100;-62
2021/01/31 03:12:32;;;;;;;67.28;25.98;;;;;;;;;;5155089;27;20104;-62
2021/01/31 03:15:22;;;;;;;67.00;27.40;;;;;;;;;;5154193;27;20058;-63
2021/01/31 03:18:12;;;;;;;70.50;27.50;;;;;;;;;;5154013;27;20491;-63
2021/01/31 03:20:59;;;;;;;65.30;26.63;;;;;;;;;;5154021;27;20038;-63
2021/01/31 03:23:46;;;;;;;63.17;27.33;;;;;;;;;;5155049;27;20046;-62
2021/01/31 03:26:35;;;;;;;71.95;28.17;;;;;;;;;;5153892;27;20125;-63
2021/01/31 03:29:20;;;;;;;62.33;26.23;;;;;;;;;;5148837;27;20039;-62
2021/01/31 03:32:07;;;;;;;65.90;27.92;;;;;;;;;;5133109;27;20043;-61
2021/01/31 03:34:52;;;;;;;69.22;29.75;;;;;;;;;;5133014;27;20130;-63
2021/01/31 03:37:40;;;;;;;67.15;27.60;;;;;;;;;;5133949;27;20381;-61
2021/01/31 03:40:26;;;;;;;68.88;28.80;;;;;;;;;;5144582;27;20062;-63
2021/01/31 03:43:11;;;;;;;61.83;27.83;;;;;;;;;;5153539;27;20113;-62
2021/01/31 03:46:13;;;;;;;62.53;26.23;;;;;;;;;;5154635;27;20050;-62
2021/01/31 03:49:06;;;;;;;60.25;26.55;;;;;;;;;;5153543;27;20125;-62
2021/01/31 03:51:51;;;;;;;58.55;27.52;;;;;;;;;;5152637;27;20035;-61
2021/01/31 03:54:37;;;;;;;63.88;27.02;;;;;;;;;;5153369;27;20047;-62
2021/01/31 03:57:25;;;;;;;63.42;29.00;;;;;;;;;;5151404;27;20484;-61
2021/01/31 04:00:11;;;;;;;73.82;28.90;;;;;;;;;;5139397;27;20051;-62
2021/01/31 04:03:01;;;;;;;69.20;27.73;;;;;;;;;;5153208;27;20039;-62
2021/01/31 04:05:56;;;;;;;60.80;25.35;;;;;;;;;;5153337;27;20122;-62
2021/01/31 04:08:41;;;;;;;65.50;26.77;;;;;;;;;;5153465;27;20042;-62
2021/01/31 04:11:30;;;;;;;66.57;28.77;;;;;;;;;;5153130;27;20436;-63
2021/01/31 04:14:20;;;;;;;63.97;26.38;;;;;;;;;;5153267;27;20043;-63
2021/01/31 04:17:05;;;;;;;58.70;25.95;;;;;;;;;;5152950;27;20039;-62
2021/01/31 04:19:50;;;;;;;55.88;26.15;;;;;;;;;;5132884;27;20047;-62
2021/01/31 04:22:35;;;;;;;54.08;25.52;;;;;;;;;;5133100;27;20139;-62
2021/01/31 04:25:21;;;;;;;64.35;27.58;;;;;;;;;;5133028;27;20531;-64
2021/01/31 04:28:09;;;;;;;60.80;27.33;;;;;;;;;;5133563;27;20051;-62
2021/01/31 04:30:56;;;;;;;55.17;23.85;;;;;;;;;;5133040;27;20129;-63
2021/01/31 04:33:42;;;;;;;66.13;28.15;;;;;;;;;;5133091;27;20065;-62
2021/01/31 04:36:27;;;;;;;61.28;27.45;;;;;;;;;;5132777;27;20039;-63
2021/01/31 04:39:12;;;;;;;63.80;26.33;;;;;;;;;;5141423;27;20484;-62
2021/01/31 04:41:58;;;;;;;60.20;25.70;;;;;;;;;;5153488;27;20046;-61
2021/01/31 04:44:43;;;;;;;70.80;30.05;;;;;;;;;;5152620;27;20121;-62
2021/01/31 04:47:30;;;;;;;62.42;28.50;;;;;;;;;;5152705;27;20043;-62
2021/01/31 04:50:45;;;;;;;64.50;29.17;;;;;;;;;;5138148;27;20138;-64
2021/01/31 04:53:42;;;;;;;62.03;26.55;;;;;;;;;;5129198;28;20059;-61
2021/01/31 04:56:34;;;;;;;61.85;27.30;;;;;;;;;;5131879;28;20062;-62
2021/01/31 04:59:27;;;;;;;56.78;24.10;;;;;;;;;;5135531;27;20645;-62
2021/01/31 05:02:12;;;;;;;;;;;;;;;;;;5152957;27;20064;-62
2021/01/31 05:04:58;;;;;;;59.55;25.40;;;;;;;;;;5153538;27;20300;-64
2021/01/31 05:07:45;;;;;;;64.03;27.42;;;;;;;;;;5153390;27;20039;-61
2021/01/31 05:10:31;;;;;;;62.67;25.33;;;;;;;;;;5142239;27;20476;-62
2021/01/31 05:13:22;;;;;;;60.92;26.08;;;;;;;;;;5132665;28;20049;-63
2021/01/31 05:16:12;;;;;;;70.72;28.48;;;;;;;;;;5131560;28;20118;-61
2021/01/31 05:18:58;;;;;;;63.70;26.95;;;;;;;;;;5137215;27;20111;-62
2021/01/31 05:21:43;;;;;;;63.83;28.52;;;;;;;;;;5136590;27;20515;-62
2021/01/31 05:24:28;;;;;;;56.47;25.15;;;;;;;;;;5144540;27;20043;-62
2021/01/31 05:27:14;;;;;;;68.90;28.60;;;;;;;;;;5152207;27;20118;-61
2021/01/31 05:29:59;;;;;;;77.00;30.52;;;;;;;;;;5150573;27;20504;-62
2021/01/31 05:33:03;;;;;;;68.65;30.20;;;;;;;;;;5153168;27;20039;-64
2021/01/31 05:35:50;;;;;;;54.83;25.35;;;;;;;;;;5153071;27;20035;-61
2021/01/31 05:38:36;;;;;;;66.57;28.40;;;;;;;;;;5153256;27;20042;-61
2021/01/31 05:41:36;;;;;;;68.88;30.15;;;;;;;;;;5133770;27;20031;-62
2021/01/31 05:44:26;;;;;;;73.38;31.27;;;;;;;;;;5132231;28;20405;-62
2021/01/31 05:47:25;;;;;;;61.90;30.52;;;;;;;;;;5131494;28;20412;-61
2021/01/31 05:50:29;;;;;;;61.83;28.08;;;;;;;;;;5142302;27;20091;-63
2021/01/31 05:53:28;;;;;;;61.17;27.10;;;;;;;;;;5156868;27;20057;-63
2021/01/31 05:56:29;;;;;;;58.00;27.38;;;;;;;;;;5156570;27;20041;-62
2021/01/31 05:59:15;;;;;;;62.50;27.15;;;;;;;;;;5156878;27;20042;-61
2021/01/31 06:02:01;;;;;;;55.80;26.65;;;;;;;;;;5151824;27;20045;-63
2021/01/31 06:04:46;;;;;;;58.65;28.33;;;;;;;;;;5138027;27;20050;-62
2021/01/31 06:07:32;;;;;;;55.55;26.60;;;;;;;;;;5135635;27;20039;-61
2021/01/31 06:10:18;;;;;;;51.67;23.73;;;;;;;;;;5135722;27;20637;-62
2021/01/31 06:13:12;;;;;;;51.28;25.00;;;;;;;;;;5135886;27;20517;-62
2021/01/31 06:15:58;;;;;;;56.13;25.55;;;;;;;;;;5134681;27;20108;-61
2021/01/31 06:18:43;;;;;;;61.03;28.17;;;;;;;;;;5134760;27;20066;-62
2021/01/31 06:21:36;;;;;;;56.65;25.45;;;;;;;;;;5134840;27;20047;-61
2021/01/31 06:24:29;;;;;;;66.55;28.10;;;;;;;;;;5134400;27;20493;-63
2021/01/31 06:27:34;;;;;;;59.78;27.73;;;;;;;;;;5135456;27;20039;-61
2021/01/31 06:30:39;;;;;;;65.32;28.88;;;;;;;;;;5135361;27;20046;-62
2021/01/31 06:33:24;;;;;;;67.95;28.60;;;;;;;;;;5118669;27;20493;-62
2021/01/31 06:36:14;;;;;;;58.55;26.15;;;;;;;;;;5135048;27;20485;-62
2021/01/31 06:39:06;;;;;;;57.55;27.38;;;;;;;;;;5134381;27;20047;-63
2021/01/31 06:41:55;;;;;;;61.13;26.80;;;;;;;;;;5133959;27;20500;-61
2021/01/31 06:44:57;;;;;;;41.42;22.30;;;;;;;;;;5134028;27;20046;-62
2021/01/31 06:47:45;;;;;;;42.42;22.08;;;;;;;;;;5141762;27;20042;-62
2021/01/31 06:50:37;;;;;;;66.60;28.38;;;;;;;;;;5138904;27;20054;-61
2021/01/31 06:53:26;;;;;;;70.38;28.80;;;;;;;;;;5135061;27;20047;-62
2021/01/31 06:56:27;;;;;;;79.90;32.42;;;;;;;;;;5152883;27;20047;-61
2021/01/31 06:59:30;;;;;;;74.43;32.05;;;;;;;;;;5154831;27;20039;-61
2021/01/31 07:02:35;;;;;;;72.97;30.48;;;;;;;;;;5153970;27;20050;-62
2021/01/31 07:05:20;;;;;;;74.45;30.25;;;;;;;;;;5155180;27;20489;-62
2021/01/31 07:08:08;;;;;;;85.05;32.00;;;;;;;;;;5155222;27;20049;-61
2021/01/31 07:10:56;;;;;;;69.35;28.10;;;;;;;;;;5141173;27;20043;-61
2021/01/31 07:13:46;;;;;;;71.60;29.77;;;;;;;;;;5134511;27;20039;-62
2021/01/31 07:16:42;;;;;;;69.45;29.60;;;;;;;;;;5133369;27;20050;-62
2021/01/31 07:19:28;;;;;;;90.38;36.38;;;;;;;;;;5149547;27;20035;-62
2021/01/31 07:22:32;;;;;;;68.32;29.73;;;;;;;;;;5154228;27;20408;-61
2021/01/31 07:25:20;;;;;;;77.28;31.50;;;;;;;;;;5154787;27;20034;-62
2021/01/31 07:28:22;;;;;;;82.55;34.22;;;;;;;;;;5153189;27;20042;-61
2021/01/31 07:31:18;;;;;;;71.05;31.08;;;;;;;;;;5153988;27;20070;-61
2021/01/31 07:34:05;;;;;;;61.70;28.02;;;;;;;;;;5136366;27;20043;-61
2021/01/31 07:37:00;;;;;;;73.55;30.52;;;;;;;;;;5137701;27;20109;-61
2021/01/31 07:39:49;;;;;;;61.70;29.77;;;;;;;;;;5139895;27;20043;-61
2021/01/31 07:42:35;;;;;;;69.50;31.20;;;;;;;;;;5136785;27;20034;-61
2021/01/31 07:45:22;;;;;;;58.45;28.13;;;;;;;;;;5140420;27;20106;-61
2021/01/31 07:48:25;;;;;;;61.80;29.48;;;;;;;;;;5143473;27;20039;-61
2021/01/31 07:51:10;;;;;;;54.55;26.38;;;;;;;;;;5134332;27;20046;-61
2021/01/31 07:53:55;;;;;;;58.58;27.25;;;;;;;;;;5151789;27;20043;-62
2021/01/31 07:56:40;;;;;;;58.17;25.85;;;;;;;;;;5154150;27;20095;-62
2021/01/31 07:59:27;;;;;;;41.20;21.95;;;;;;;;;;5132667;27;20545;-62
2021/01/31 08:02:13;;;;;;;50.47;24.75;;;;;;;;;;5132442;27;20035;-62
2021/01/31 08:04:59;;;;;;;70.03;32.72;;;;;;;;;;5150568;27;20088;-62
2021/01/31 08:08:00;;;;;;;73.07;33.20;;;;;;;;;;5152242;27;20816;-62
2021/01/31 08:10:46;;;;;;;64.55;29.60;;;;;;;;;;5153959;27;20435;-63
2021/01/31 08:13:35;;;;;;;65.18;29.08;;;;;;;;;;5153880;27;20043;-62
2021/01/31 08:16:39;;;;;;;73.32;35.17;;;;;;;;;;5152455;27;20047;-62
2021/01/31 08:19:31;;;;;;;55.72;27.02;;;;;;;;;;5153073;27;20051;-62
2021/01/31 08:22:33;;;;;;;64.43;30.45;;;;;;;;;;5151157;27;20188;-61
2021/01/31 08:25:18;;;;;;;59.60;28.17;;;;;;;;;;5153698;27;20066;-62
2021/01/31 08:28:04;;;;;;;61.45;30.67;;;;;;;;;;5152136;27;20676;-63
2021/01/31 08:31:08;;;;;;;59.80;29.73;;;;;;;;;;5146258;27;20043;-62
2021/01/31 08:34:03;;;;;;;52.05;26.58;;;;;;;;;;5133011;27;20485;-62
2021/01/31 08:36:48;;;;;;;50.33;27.63;;;;;;;;;;5132901;27;20039;-62
2021/01/31 08:39:33;;;;;;;44.88;24.65;;;;;;;;;;5139197;27;20041;-62
2021/01/31 08:42:18;;;;;;;51.92;28.15;;;;;;;;;;5141067;27;20039;-62
2021/01/31 08:45:03;;;;;;;45.72;25.98;;;;;;;;;;5138198;27;20401;-62
2021/01/31 08:47:49;;;;;;;37.88;22.33;;;;;;;;;;5140928;27;20493;-61
2021/01/31 08:50:34;;;;;;;49.72;26.20;;;;;;;;;;5140417;27;20134;-61
2021/01/31 08:53:20;;;;;;;42.47;24.60;;;;;;;;;;5140206;27;20500;-62
2021/01/31 08:56:23;;;;;;;39.00;23.45;;;;;;;;;;5145454;27;20043;-61
2021/01/31 08:59:15;;;;;;;41.10;23.92;;;;;;;;;;5135419;27;20039;-61
2021/01/31 09:02:04;;;;;;;38.55;22.50;;;;;;;;;;5141137;27;20039;-63
2021/01/31 09:04:49;;;;;;;38.97;22.60;;;;;;;;;;5137400;27;20039;-63
2021/01/31 09:07:38;;;;;;;39.28;23.83;;;;;;;;;;5138937;27;20043;-63
2021/01/31 09:10:31;;;;;;;32.28;20.13;;;;;;;;;;5137626;27;20039;-64
2021/01/31 09:13:38;;;;;;;34.38;21.02;;;;;;;;;;5136412;27;20039;-63
2021/01/31 09:16:24;;;;;;;31.00;20.30;;;;;;;;;;5138425;27;20039;-66
2021/01/31 09:19:24;;;;;;;36.78;22.55;;;;;;;;;;5153045;27;20042;-64
2021/01/31 09:22:10;;;;;;;35.90;21.95;;;;;;;;;;5153162;27;20115;-64
2021/01/31 09:25:00;;;;;;;26.85;17.33;;;;;;;;;;5154914;27;20043;-64
2021/01/31 09:27:49;;;;;;;26.50;18.52;;;;;;;;;;5157337;27;20475;-64
2021/01/31 09:30:34;;;;;;;27.42;17.25;;;;;;;;;;5149413;27;20062;-64
2021/01/31 09:33:22;;;;;;;22.58;15.13;;;;;;;;;;5136339;27;20485;-64
2021/01/31 09:36:26;;;;;;;22.10;15.23;;;;;;;;;;5135393;27;20055;-64
2021/01/31 09:39:11;;;;;;;22.60;15.35;;;;;;;;;;5136402;27;20075;-64
2021/01/31 09:41:56;;;;;;;25.80;16.95;;;;;;;;;;5135119;27;20508;-64
2021/01/31 09:44:44;;;;;;;24.40;16.58;;;;;;;;;;5135635;27;20101;-64
2021/01/31 09:47:29;;;;;;;22.20;14.98;;;;;;;;;;5135125;27;20051;-64
2021/01/31 09:50:15;;;;;;;22.20;14.60;;;;;;;;;;5136116;27;20055;-64
2021/01/31 09:53:00;;;;;;;20.67;14.10;;;;;;;;;;5155880;27;20431;-64
2021/01/31 09:55:45;;;;;;;16.65;12.48;;;;;;;;;;5155789;27;20125;-64
2021/01/31 09:58:43;;;;;;;18.38;12.35;;;;;;;;;;5143655;27;20508;-64
2021/01/31 10:01:28;;;;;;;18.63;13.80;;;;;;;;;;5146104;27;20531;-64
2021/01/31 10:04:25;;;;;;;17.83;13.02;;;;;;;;;;5154721;27;20071;-64
2021/01/31 10:07:11;;;;;;;15.95;12.52;;;;;;;;;;5153905;27;20031;-64
2021/01/31 10:09:56;;;;;;;19.48;11.63;;;;;;;;;;5156446;27;20042;-64
2021/01/31 10:12:42;;;;;;;18.60;13.45;;;;;;;;;;5155275;27;20043;-64
2021/01/31 10:15:37;;;;;;;20.73;13.77;;;;;;;;;;5153888;27;20450;-64
2021/01/31 10:18:31;;;;;;;18.42;13.20;;;;;;;;;;5156232;27;20051;-64
2021/01/31 10:21:16;;;;;;;19.15;12.90;;;;;;;;;;5148130;27;20039;-64
2021/01/31 10:24:03;;;;;;;16.65;11.73;;;;;;;;;;5135583;27;20074;-64
2021/01/31 10:26:48;;;;;;;18.15;11.80;;;;;;;;;;5138114;27;20070;-64
2021/01/31 10:29:33;;;;;;;17.00;12.80;;;;;;;;;;5156041;27;20074;-64
2021/01/31 10:32:25;;;;;;;16.75;13.38;;;;;;;;;;5141728;27;20039;-64
2021/01/31 10:35:20;;;;;;;18.45;14.30;;;;;;;;;;5134924;27;20100;-64
2021/01/31 10:38:24;;;;;;;21.05;14.57;;;;;;;;;;5135290;27;20047;-64
2021/01/31 10:41:09;;;;;;;21.65;14.95;;;;;;;;;;5149486;27;20050;-64
2021/01/31 10:43:55;;;;;;;20.58;14.75;;;;;;;;;;5155737;27;20050;-64
2021/01/31 10:46:40;;;;;;;17.13;12.98;;;;;;;;;;5152340;27;20039;-65
2021/01/31 10:49:26;;;;;;;15.95;12.55;;;;;;;;;;5155869;27;20042;-64
2021/01/31 10:52:11;;;;;;;17.15;13.52;;;;;;;;;;5155506;27;20114;-64
2021/01/31 10:54:56;;;;;;;17.23;12.13;;;;;;;;;;5152940;27;20050;-64
2021/01/31 10:57:42;;;;;;;17.77;12.43;;;;;;;;;;5155509;27;20042;-64
2021/01/31 11:00:27;;;;;;;17.10;12.68;;;;;;;;;;5153839;27;20034;-64
2021/01/31 11:03:13;;;;;;;17.60;12.23;;;;;;;;;;5155616;27;20404;-64
2021/01/31 11:05:58;;;;;;;16.13;12.23;;;;;;;;;;5155292;27;20054;-64
2021/01/31 11:08:43;;;;;;;15.52;11.98;;;;;;;;;;5143329;27;20103;-64
2021/01/31 11:11:29;;;;;;;17.98;13.45;;;;;;;;;;5141966;27;20431;-64
2021/01/31 11:14:14;;;;;;;16.15;12.15;;;;;;;;;;5138824;27;20043;-64
2021/01/31 11:17:00;;;;;;;16.27;11.90;;;;;;;;;;5134330;27;20067;-64
2021/01/31 11:19:46;;;;;;;16.02;12.73;;;;;;;;;;5145567;27;20039;-64
2021/01/31 11:22:31;;;;;;;16.20;11.77;;;;;;;;;;5155078;27;20047;-64
2021/01/31 11:25:16;;;;;;;15.55;11.48;;;;;;;;;;5153100;27;20445;-64
2021/01/31 11:28:02;;;;;;;16.63;12.40;;;;;;;;;;5152419;27;20396;-64
2021/01/31 11:30:47;;;;;;;16.33;12.07;;;;;;;;;;5140260;27;20115;-64
2021/01/31 14:36:49;;;;;;;7.47;5.38;;;;;;;;;;5148782;27;20385;-64
2021/01/31 14:39:35;;;;;;;5.72;4.80;;;;;;;;;;5147599;27;20561;-65
2021/01/31 14:42:21;;;;;;;7.07;5.45;;;;;;;;;;5148911;27;20039;-65
2021/01/31 14:45:07;;;;;;;5.57;4.82;;;;;;;;;;5148917;27;20043;-65
2021/01/31 14:47:52;;;;;;;7.05;5.47;;;;;;;;;;5147907;27;20050;-65
2021/01/31 14:50:37;;;;;;;6.00;5.03;;;;;;;;;;5148364;27;20107;-65
2021/01/31 14:53:23;;;;;;;5.95;5.30;;;;;;;;;;5140300;27;20060;-65
2021/01/31 14:56:08;;;;;;;6.88;5.40;;;;;;;;;;5127853;27;20035;-65
2021/01/31 14:58:53;;;;;;;6.10;5.32;;;;;;;;;;5128425;27;20059;-65
2021/01/31 15:01:45;;;;;;;7.32;5.60;;;;;;;;;;5140541;27;20043;-65
2021/01/31 15:04:30;;;;;;;7.60;5.72;;;;;;;;;;5165729;27;20163;-65
2021/01/31 15:07:17;;;;;;;8.27;5.43;;;;;;;;;;5141023;27;20053;-65
2021/01/31 15:10:03;;;;;;;6.32;5.57;;;;;;;;;;5127720;27;20039;-65
2021/01/31 15:12:49;;;;;;;6.60;5.05;;;;;;;;;;5128261;27;20043;-65
2021/01/31 15:15:34;;;;;;;7.25;5.85;;;;;;;;;;5147616;27;20180;-65
2021/01/31 15:18:20;;;;;;;6.88;5.63;;;;;;;;;;5143491;27;20124;-65
2021/01/31 15:21:05;;;;;;;8.40;6.75;;;;;;;;;;5133933;27;20488;-65
2021/01/31 15:23:50;;;;;;;8.13;6.85;;;;;;;;;;5125652;27;20043;-66
2021/01/31 15:26:37;;;;;;;7.93;6.10;;;;;;;;;;5128949;27;20051;-65
2021/01/31 15:29:22;;;;;;;6.70;6.00;;;;;;;;;;5135644;27;20501;-66
2021/01/31 15:32:07;;;;;;;8.18;6.55;;;;;;;;;;5139159;27;20035;-66
2021/01/31 15:34:52;;;;;;;9.13;7.07;;;;;;;;;;5128207;27;20048;-66
2021/01/31 15:37:37;;;;;;;8.20;6.57;;;;;;;;;;5126941;27;20043;-65
2021/01/31 15:40:24;;;;;;;7.55;6.10;;;;;;;;;;5147965;27;20446;-65
2021/01/31 15:43:09;;;;;;;9.43;7.22;;;;;;;;;;5145499;27;20100;-66
2021/01/31 15:45:54;;;;;;;8.40;6.32;;;;;;;;;;5126914;27;20153;-66
2021/01/31 15:48:39;;;;;;;10.48;7.63;;;;;;;;;;5112790;27;20134;-65
2021/01/31 15:51:25;;;;;;;9.38;7.60;;;;;;;;;;5114421;27;20052;-65
2021/01/31 15:54:10;;;;;;;10.45;8.05;;;;;;;;;;5112600;27;20067;-65
2021/01/31 15:56:55;;;;;;;10.02;7.88;;;;;;;;;;5121385;27;20043;-65
2021/01/31 15:59:41;;;;;;;12.75;8.63;;;;;;;;;;5133105;27;20043;-65
2021/01/31 16:02:26;;;;;;;10.32;7.88;;;;;;;;;;5126222;27;20040;-65
2021/01/31 16:05:11;;;;;;;10.55;8.23;;;;;;;;;;5133467;27;20047;-65
2021/01/31 16:07:57;;;;;;;10.27;7.82;;;;;;;;;;5133224;27;20043;-65
2021/01/31 16:10:42;;;;;;;10.05;7.22;;;;;;;;;;5124290;27;20043;-65
2021/01/31 16:13:28;;;;;;;10.80;7.72;;;;;;;;;;5112384;27;20047;-65
2021/01/31 16:16:13;;;;;;;14.27;8.10;;;;;;;;;;5112590;28;20185;-65
2021/01/31 16:18:59;;;;;;;12.65;9.52;;;;;;;;;;5108643;27;20417;-63
2021/01/31 16:21:44;;;;;;;12.18;8.93;;;;;;;;;;5112107;27;20043;-63
2021/01/31 16:24:29;;;;;;;11.90;8.75;;;;;;;;;;5119612;27;20126;-63
2021/01/31 16:27:14;;;;;;;14.48;9.18;;;;;;;;;;5133350;27;20039;-64
2021/01/31 16:29:59;;;;;;;12.98;8.73;;;;;;;;;;5133208;27;20055;-64
2021/01/31 16:32:44;;;;;;;12.82;9.60;;;;;;;;;;5118759;27;20039;-64
2021/01/31 16:35:31;;;;;;;12.85;9.50;;;;;;;;;;5135712;27;20051;-64
2021/01/31 16:38:16;;;;;;;13.52;10.35;;;;;;;;;;5113169;27;20050;-65
2021/01/31 16:41:02;;;;;;;13.45;9.90;;;;;;;;;;5112467;28;20485;-65
2021/01/31 16:43:48;;;;;;;13.68;9.70;;;;;;;;;;5112608;27;20051;-65
2021/01/31 16:46:34;;;;;;;13.13;9.02;;;;;;;;;;5111190;28;20048;-65
2021/01/31 16:49:19;;;;;;;14.60;10.15;;;;;;;;;;5129674;27;20043;-65
2021/01/31 16:52:04;;;;;;;14.77;10.00;;;;;;;;;;5132346;27;20043;-65
2021/01/31 16:54:49;;;;;;;13.40;9.82;;;;;;;;;;5119620;27;20047;-66
2021/01/31 16:57:35;;;;;;;13.95;9.35;;;;;;;;;;5111795;28;20513;-64
2021/01/31 17:00:21;;;;;;;14.98;8.82;;;;;;;;;;5114513;27;20044;-65
2021/01/31 17:03:06;;;;;;;13.50;9.63;;;;;;;;;;5138182;27;20066;-65
2021/01/31 17:05:51;;;;;;;12.25;8.85;;;;;;;;;;5152945;27;20183;-65
2021/01/31 17:08:37;;;;;;;12.77;9.38;;;;;;;;;;5114091;27;20140;-65
2021/01/31 17:11:22;;;;;;;12.93;9.32;;;;;;;;;;5111868;28;20177;-65
2021/01/31 17:14:07;;;;;;;13.45;9.63;;;;;;;;;;5112688;27;20451;-65
2021/01/31 17:16:52;;;;;;;11.77;8.48;;;;;;;;;;5111502;28;20050;-65
2021/01/31 17:19:38;;;;;;;13.32;8.80;;;;;;;;;;5106006;27;20055;-65
2021/01/31 17:22:23;;;;;;;11.23;8.10;;;;;;;;;;5112358;27;20079;-65
2021/01/31 17:25:09;;;;;;;11.43;8.13;;;;;;;;;;5111349;27;20502;-65
2021/01/31 17:27:54;;;;;;;13.10;9.70;;;;;;;;;;5112528;27;20028;-65
2021/01/31 17:30:40;;;;;;;11.05;7.53;;;;;;;;;;5110727;27;20047;-65
2021/01/31 17:33:25;;;;;;;10.40;7.47;;;;;;;;;;5128593;27;20049;-65
2021/01/31 17:36:10;;;;;;;11.80;8.38;;;;;;;;;;5131894;27;20119;-65
2021/01/31 17:38:56;;;;;;;9.95;7.45;;;;;;;;;;5123103;27;20039;-65
2021/01/31 17:41:42;;;;;;;11.88;8.48;;;;;;;;;;5118752;27;20047;-65
2021/01/31 17:44:27;;;;;;;9.30;6.63;;;;;;;;;;5130756;27;20405;-65
2021/01/31 17:47:12;;;;;;;10.27;7.68;;;;;;;;;;5115487;27;20051;-65
2021/01/31 17:49:57;;;;;;;9.15;7.18;;;;;;;;;;5111640;27;20079;-65
2021/01/31 17:52:44;;;;;;;9.05;7.07;;;;;;;;;;5129573;27;20047;-65
2021/01/31 17:55:30;;;;;;;10.10;6.85;;;;;;;;;;5130349;27;20047;-65
2021/01/31 17:58:15;;;;;;;10.60;6.55;;;;;;;;;;5129919;27;20039;-65
2021/01/31 18:01:00;;;;;;;10.68;7.70;;;;;;;;;;5131280;27;20505;-65
2021/01/31 18:03:45;;;;;;;9.02;6.28;;;;;;;;;;5141868;27;20125;-64
2021/01/31 18:06:31;;;;;;;9.77;6.65;;;;;;;;;;5118661;27;20043;-64
2021/01/31 18:09:16;;;;;;;8.82;6.75;;;;;;;;;;5110696;27;20047;-63
2021/01/31 18:12:01;;;;;;;10.65;6.95;;;;;;;;;;5109969;27;20035;-64
2021/01/31 18:14:46;;;;;;;9.63;6.85;;;;;;;;;;5108885;27;20048;-63
2021/01/31 18:17:33;;;;;;;8.75;6.60;;;;;;;;;;5108455;28;20402;-64
2021/01/31 18:20:18;;;;;;;8.40;6.82;;;;;;;;;;5118814;27;20130;-64
2021/01/31 18:23:03;;;;;;;8.95;6.97;;;;;;;;;;5130663;27;20047;-64
2021/01/31 18:25:49;;;;;;;11.15;7.70;;;;;;;;;;5126714;27;20085;-64
2021/01/31 18:28:34;;;;;;;10.27;7.38;;;;;;;;;;5109990;28;20051;-64
2021/01/31 18:31:19;;;;;;;12.60;8.13;;;;;;;;;;5109916;28;20047;-64
2021/01/31 18:34:04;;;;;;;10.13;7.18;;;;;;;;;;5125552;27;20131;-64
2021/01/31 18:36:49;;;;;;;9.80;6.78;;;;;;;;;;5129924;27;20054;-64
2021/01/31 18:39:35;;;;;;;12.27;7.57;;;;;;;;;;5129620;27;20047;-64
2021/01/31 18:42:21;;;;;;;9.25;7.28;;;;;;;;;;5117955;27;20040;-64
2021/01/31 18:45:06;;;;;;;10.13;6.90;;;;;;;;;;5119016;27;20051;-64
2021/01/31 18:47:51;;;;;;;8.88;6.70;;;;;;;;;;5113016;27;20079;-64
2021/01/31 18:50:37;;;;;;;9.88;6.82;;;;;;;;;;5109769;27;20557;-64
2021/01/31 18:53:22;;;;;;;8.52;6.97;;;;;;;;;;5110570;28;20092;-64
2021/01/31 18:56:07;;;;;;;10.23;6.88;;;;;;;;;;5114308;27;20485;-64
2021/01/31 18:58:52;;;;;;;9.70;7.53;;;;;;;;;;5114983;28;20035;-64
2021/01/31 19:01:38;;;;;;;9.88;7.50;;;;;;;;;;5130408;27;20035;-64
2021/01/31 19:04:23;;;;;;;11.68;7.95;;;;;;;;;;5145879;27;20151;-66
2021/01/31 19:07:08;;;;;;;10.65;7.53;;;;;;;;;;5139443;27;20039;-65
2021/01/31 19:09:54;;;;;;;12.20;7.82;;;;;;;;;;5122975;27;20047;-66
2021/01/31 19:12:39;;;;;;;10.13;7.60;;;;;;;;;;5109672;28;20557;-66
2021/01/31 19:15:24;;;;;;;10.75;7.65;;;;;;;;;;5110396;27;20055;-65
2021/01/31 19:18:10;;;;;;;10.55;8.23;;;;;;;;;;5129824;28;20048;-66
2021/01/31 19:20:55;;;;;;;9.60;7.43;;;;;;;;;;5130535;27;20055;-66
2021/01/31 19:23:40;;;;;;;11.75;8.00;;;;;;;;;;5132855;27;20536;-65
2021/01/31 19:26:26;;;;;;;9.35;7.57;;;;;;;;;;5134616;27;20059;-65
2021/01/31 19:29:12;;;;;;;11.88;8.27;;;;;;;;;;5135204;27;20592;-66